Time;durP1;ratioP1;P1;durP2;ratioP2;P2;SDS_P1;SDS_P2;PMS_P1;PMS_P2;Temp;Humidity;BMP_temperature;BMP_pressure;BME280_temperature;BME280_humidity;BME280_pressure;Samples;Min_cycle;Max_cycle;Signal;HPM_P1;HPM_P2
2024/04/14 00:01:17;;;;;;;2.50;1.20;;;;;;;15.48;44.97;93634.00;2028551;70;20152;-74
2024/04/14 00:03:42;;;;;;;2.78;1.35;;;;;;;15.34;45.49;93616.16;2028427;70;20661;-71
2024/04/14 00:06:08;;;;;;;2.55;1.00;;;;;;;15.58;45.39;93633.13;2028514;70;20183;-72
2024/04/14 00:08:35;;;;;;;4.05;1.20;;;;;;;15.17;45.45;93631.53;2024869;70;20196;-69
2024/04/14 00:11:00;;;;;;;1.40;0.90;;;;;;;15.44;45.89;93628.13;2028637;70;20233;-70
2024/04/14 00:13:26;;;;;;;1.65;1.00;;;;;;;15.37;45.84;93617.03;2028095;70;20232;-71
2024/04/14 00:16:02;;;;;;;1.42;1.00;;;;;;;15.32;46.22;93607.56;2028506;70;20146;-73
2024/04/14 00:18:27;;;;;;;1.40;0.90;;;;;;;15.04;46.06;93615.16;2028535;70;20145;-74
2024/04/14 00:20:53;;;;;;;1.30;0.77;;;;;;;15.44;45.21;93618.84;2024642;70;20184;-68
2024/04/14 00:23:19;;;;;;;2.95;0.93;;;;;;;15.28;45.56;93609.41;2028311;70;20551;-72
2024/04/14 00:25:45;;;;;;;1.27;0.88;;;;;;;15.34;45.49;93613.34;2028290;70;20195;-74
2024/04/14 00:28:10;;;;;;;1.50;1.00;;;;;;;15.37;45.03;93602.84;2024888;70;20156;-70
2024/04/14 00:30:36;;;;;;;2.00;1.30;;;;;;;14.63;47.34;93606.34;2024788;70;20229;-70
2024/04/14 00:33:02;;;;;;;3.35;1.30;;;;;;;14.87;47.32;93602.09;2028462;70;20168;-71
2024/04/14 00:35:27;;;;;;;2.25;1.20;;;;;;;14.77;47.19;93595.84;2028647;70;20143;-70
2024/04/14 00:37:53;;;;;;;2.30;1.10;;;;;;;14.84;46.65;93586.31;2024961;70;20153;-74
2024/04/14 00:40:19;;;;;;;6.35;1.20;;;;;;;14.96;46.83;93592.72;2028228;70;20645;-71
2024/04/14 00:42:45;;;;;;;2.47;1.00;;;;;;;14.99;45.72;93585.09;2028276;70;20192;-70
2024/04/14 00:45:11;;;;;;;2.55;1.05;;;;;;;14.84;45.70;93592.00;2024654;70;20172;-71
2024/04/14 00:47:36;;;;;;;3.70;1.38;;;;;;;14.59;46.93;93592.66;2028280;70;20277;-68
2024/04/14 00:50:03;;;;;;;2.22;1.08;;;;;;;14.47;46.93;93595.44;2028746;70;20186;-74
2024/04/14 00:52:30;;;;;;;5.13;1.35;;;;;;;14.75;47.05;93592.88;2028480;70;20206;-68
2024/04/14 00:54:56;;;;;;;3.53;1.25;;;;;;;14.67;47.40;93595.25;2028416;70;20154;-69
2024/04/14 00:57:23;;;;;;;2.03;1.00;;;;;;;14.57;48.08;93591.78;2028327;70;20141;-72
2024/04/14 00:59:51;;;;;;;1.58;1.20;;;;;;;14.44;48.77;93576.13;2024763;70;20155;-69
2024/04/14 01:02:16;;;;;;;4.57;1.00;;;;;;;14.39;48.64;93597.06;2028441;70;20480;-73
2024/04/14 01:04:42;;;;;;;2.60;1.20;;;;;;;14.32;48.44;93581.78;2028526;70;20569;-72
2024/04/14 01:07:08;;;;;;;2.85;1.10;;;;;;;14.24;48.68;93584.13;2025027;70;20313;-73
2024/04/14 01:09:33;;;;;;;4.22;1.00;;;;;;;14.27;49.07;93591.41;2022520;70;20172;-70
2024/04/14 01:11:59;;;;;;;2.97;1.50;;;;;;;14.43;48.42;93595.22;2028268;70;20578;-69
2024/04/14 01:14:25;;;;;;;2.30;1.10;;;;;;;14.15;48.79;93590.63;2024873;70;20149;-73
2024/04/14 01:16:50;;;;;;;2.00;1.20;;;;;;;14.32;48.65;93590.28;2028485;70;20220;-73
2024/04/14 01:19:16;;;;;;;2.22;1.20;;;;;;;14.07;48.77;93581.66;2024954;70;20157;-68
2024/04/14 01:21:41;;;;;;;1.98;0.95;;;;;;;14.24;48.19;93592.63;2028477;70;20153;-69
2024/04/14 01:24:07;;;;;;;2.38;1.05;;;;;;;14.05;49.51;93587.91;2028527;70;20148;-71
2024/04/14 01:26:32;;;;;;;5.70;1.50;;;;;;;13.96;49.81;93588.75;2024852;70;20559;-72
2024/04/14 01:28:58;;;;;;;1.70;1.20;;;;;;;13.86;50.52;93597.38;2028494;70;20140;-71
2024/04/14 01:31:24;;;;;;;2.22;1.10;;;;;;;13.85;48.75;93598.72;2028545;70;20236;-71
2024/04/14 01:33:50;;;;;;;2.00;1.10;;;;;;;13.93;49.89;93596.41;2028448;70;20161;-73
2024/04/14 01:36:15;;;;;;;1.88;1.30;;;;;;;13.35;50.53;93596.97;2028429;70;20251;-70
2024/04/14 01:38:41;;;;;;;3.47;1.25;;;;;;;13.66;50.25;93598.94;2024925;70;20153;-71
2024/04/14 01:41:06;;;;;;;7.95;1.30;;;;;;;13.75;50.25;93594.53;2025015;70;20157;-70
2024/04/14 01:43:33;;;;;;;5.65;1.10;;;;;;;13.62;50.02;93599.41;2028416;70;20159;-73
2024/04/14 01:45:59;;;;;;;3.13;1.40;;;;;;;13.61;50.31;93595.09;2028424;70;20160;-71
2024/04/14 01:48:25;;;;;;;2.22;1.20;;;;;;;13.55;50.28;93582.63;2028488;70;20221;-69
2024/04/14 01:50:50;;;;;;;2.95;1.30;;;;;;;13.67;50.27;93583.41;2024921;70;20228;-69
2024/04/14 01:53:18;;;;;;;2.67;1.10;;;;;;;13.54;50.67;93593.22;2022099;70;20187;-69
2024/04/14 01:55:45;;;;;;;4.75;1.00;;;;;;;13.47;50.36;93580.06;2024808;70;20169;-75
2024/04/14 01:58:11;;;;;;;3.83;1.27;;;;;;;13.49;51.27;93583.00;2028089;70;20225;-73
2024/04/14 02:00:37;;;;;;;2.65;1.20;;;;;;;13.40;50.31;93578.91;2028058;70;20160;-72
2024/04/14 02:03:03;;;;;;;3.50;1.33;;;;;;;13.34;51.12;93580.63;2028279;70;20151;-71
2024/04/14 02:05:28;;;;;;;3.28;1.40;;;;;;;13.02;52.24;93584.88;2028356;70;20145;-74
2024/04/14 02:07:54;;;;;;;5.63;1.20;;;;;;;12.95;52.62;93572.41;2028297;70;20641;-71
2024/04/14 02:10:21;;;;;;;4.63;1.30;;;;;;;13.01;51.37;93581.28;2028550;70;20217;-73
2024/04/14 02:12:47;;;;;;;10.80;1.67;;;;;;;13.19;50.15;93576.06;2028371;70;20153;-73
2024/04/14 02:15:13;;;;;;;3.92;2.03;;;;;;;13.19;50.40;93567.59;2027945;70;20173;-71
2024/04/14 02:17:39;;;;;;;5.50;1.80;;;;;;;13.05;49.34;93566.66;2028620;70;20592;-72
2024/04/14 02:20:05;;;;;;;4.35;1.80;;;;;;;13.21;48.87;93573.41;2028440;70;20640;-71
2024/04/14 02:22:30;;;;;;;5.07;2.58;;;;;;;13.03;50.29;93567.28;2028462;70;20208;-68
2024/04/14 02:24:56;;;;;;;6.65;2.75;;;;;;;12.80;50.63;93572.81;2025018;70;20133;-69
2024/04/14 02:27:22;;;;;;;5.45;2.80;;;;;;;12.97;50.72;93564.06;2025130;70;20172;-75
2024/04/14 02:29:48;;;;;;;7.25;2.28;;;;;;;12.77;51.30;93569.09;2028184;70;20152;-75
2024/04/14 02:32:13;;;;;;;5.95;2.53;;;;;;;12.92;50.66;93565.13;2028541;70;20148;-69
2024/04/14 02:34:40;;;;;;;3.60;1.80;;;;;;;12.68;51.49;93567.09;2029012;70;20232;-71
2024/04/14 02:37:06;;;;;;;5.15;2.00;;;;;;;12.61;52.09;93570.88;2024915;70;20594;-70
2024/04/14 02:39:31;;;;;;;6.65;2.10;;;;;;;12.64;52.07;93561.91;2028362;70;20141;-70
2024/04/14 02:41:57;;;;;;;3.42;1.90;;;;;;;12.75;51.49;93560.50;2028483;70;20156;-69
2024/04/14 02:44:23;;;;;;;6.20;2.03;;;;;;;12.78;51.51;93556.44;2028272;70;20141;-70
2024/04/14 02:46:49;;;;;;;5.40;2.22;;;;;;;12.03;53.17;93557.03;2028223;70;20201;-69
2024/04/14 02:49:15;;;;;;;4.25;1.70;;;;;;;12.43;52.63;93570.38;2028369;70;20502;-69
2024/04/14 02:51:43;;;;;;;3.63;1.67;;;;;;;12.39;52.56;93561.63;2028408;70;20176;-69
2024/04/14 02:54:09;;;;;;;3.30;1.63;;;;;;;12.62;52.24;93561.03;2028418;70;20221;-68
2024/04/14 02:56:34;;;;;;;3.15;1.40;;;;;;;12.67;51.20;93555.06;2028684;70;20169;-68
2024/04/14 02:59:00;;;;;;;2.28;1.40;;;;;;;12.76;50.65;93555.59;2028461;70;20153;-74
2024/04/14 03:01:26;;;;;;;3.38;1.20;;;;;;;12.69;49.91;93543.13;2027948;70;20152;-74
2024/04/14 03:03:52;;;;;;;3.58;1.27;;;;;;;12.70;50.43;93544.63;2028551;70;20161;-75
2024/04/14 03:06:18;;;;;;;2.15;1.13;;;;;;;12.80;50.27;93548.13;2028363;70;20525;-73
2024/04/14 03:08:43;;;;;;;1.88;1.25;;;;;;;12.61;50.41;93548.28;2028344;70;20240;-70
2024/04/14 03:11:09;;;;;;;3.92;1.10;;;;;;;12.66;50.73;93547.19;2028339;70;20235;-72
2024/04/14 03:13:35;;;;;;;5.07;1.35;;;;;;;12.53;51.00;93537.16;2028332;70;20169;-71
2024/04/14 03:16:02;;;;;;;2.38;1.40;;;;;;;12.46;51.45;93555.78;2028171;70;20160;-70
2024/04/14 03:18:28;;;;;;;4.43;1.42;;;;;;;12.18;52.23;93545.38;2028435;70;20556;-71
2024/04/14 03:21:02;;;;;;;4.22;1.27;;;;;;;12.18;52.00;93551.75;2028679;70;20250;-70
2024/04/14 03:23:29;;;;;;;3.22;1.55;;;;;;;12.22;51.28;93542.84;2025166;70;20301;-71
2024/04/14 03:25:55;;;;;;;4.15;1.45;;;;;;;12.38;51.28;93546.78;2028696;70;20244;-68
2024/04/14 03:28:22;;;;;;;4.28;1.40;;;;;;;12.19;51.95;93532.75;2028626;70;20217;-68
2024/04/14 03:30:48;;;;;;;2.75;1.10;;;;;;;12.01;51.98;93540.72;2028589;70;20694;-70
2024/04/14 03:33:14;;;;;;;3.13;1.25;;;;;;;12.10;52.18;93533.56;2028098;70;20332;-70
2024/04/14 03:35:41;;;;;;;5.60;1.50;;;;;;;12.15;51.47;93535.31;2028373;70;20567;-71
2024/04/14 03:38:07;;;;;;;4.05;1.38;;;;;;;12.07;51.96;93518.56;2028721;70;20160;-74
2024/04/14 03:40:33;;;;;;;2.83;1.13;;;;;;;12.19;51.84;93544.78;2022401;70;20156;-69
2024/04/14 03:42:58;;;;;;;5.07;1.10;;;;;;;11.98;52.44;93533.44;2025232;70;20562;-70
2024/04/14 03:45:24;;;;;;;2.78;1.30;;;;;;;12.06;51.68;93528.38;2024955;70;20168;-69
2024/04/14 03:47:53;;;;;;;4.05;1.40;;;;;;;11.91;52.27;93528.72;2028573;70;20613;-73
2024/04/14 03:50:19;;;;;;;2.65;1.33;;;;;;;11.94;52.37;93527.53;2028613;70;20213;-68
2024/04/14 03:52:47;;;;;;;1.80;1.15;;;;;;;11.95;52.99;93523.34;2025089;70;20169;-68
2024/04/14 03:55:13;;;;;;;1.83;1.00;;;;;;;11.94;52.26;93524.69;2028828;70;20440;-68
2024/04/14 03:57:38;;;;;;;1.50;1.10;;;;;;;12.04;51.81;93530.28;2028671;70;20487;-69
2024/04/14 04:00:05;;;;;;;3.35;1.20;;;;;;;11.79;53.26;93531.41;2028484;70;20536;-67
2024/04/14 04:02:40;;;;;;;4.63;1.40;;;;;;;11.92;52.62;93533.03;2028624;70;20145;-67
2024/04/14 04:05:07;;;;;;;2.83;1.02;;;;;;;11.85;53.00;93528.31;2025057;70;20144;-69
2024/04/14 04:07:34;;;;;;;3.13;1.00;;;;;;;11.57;52.51;93522.13;2028563;70;20163;-71
2024/04/14 04:10:00;;;;;;;4.35;1.25;;;;;;;11.69;52.25;93523.00;2028409;70;20206;-72
2024/04/14 04:12:25;;;;;;;3.47;1.33;;;;;;;11.47;53.19;93534.78;2025094;70;20148;-72
2024/04/14 04:14:51;;;;;;;2.10;1.20;;;;;;;11.69;52.89;93539.91;2028563;70;20152;-73
2024/04/14 04:17:17;;;;;;;3.40;1.20;;;;;;;11.65;53.13;93542.44;2028534;70;20606;-70
2024/04/14 04:19:43;;;;;;;2.55;1.13;;;;;;;11.83;52.41;93533.81;2028621;70;20137;-71
2024/04/14 04:22:08;;;;;;;4.00;1.27;;;;;;;11.67;52.33;93522.84;2025095;70;20144;-69
2024/04/14 04:24:35;;;;;;;3.25;1.02;;;;;;;11.44;52.42;93528.25;2028454;70;20201;-69
2024/04/14 04:27:00;;;;;;;3.38;1.40;;;;;;;11.62;52.88;93545.72;2024869;70;20149;-67
2024/04/14 04:29:27;;;;;;;2.67;1.13;;;;;;;11.64;52.67;93543.06;2024875;70;20230;-69
2024/04/14 04:31:54;;;;;;;3.55;1.20;;;;;;;11.63;51.87;93536.66;2028605;70;20164;-69
2024/04/14 04:34:21;;;;;;;2.75;1.27;;;;;;;11.61;52.60;93545.00;2024450;71;20222;-67
2024/04/14 04:36:48;;;;;;;3.78;1.45;;;;;;;11.59;52.77;93544.09;2025054;70;20311;-71
2024/04/14 04:39:15;;;;;;;3.25;1.27;;;;;;;11.49;52.87;93518.75;2024943;70;20264;-71
2024/04/14 04:41:40;;;;;;;3.60;1.05;;;;;;;11.45;53.32;93527.69;2021482;71;20254;-69
2024/04/14 04:44:06;;;;;;;4.43;1.20;;;;;;;11.67;52.55;93522.84;2024960;71;20157;-69
2024/04/14 04:46:32;;;;;;;2.80;1.20;;;;;;;11.59;52.88;93532.81;2024868;70;20240;-72
2024/04/14 04:48:59;;;;;;;2.47;1.30;;;;;;;11.51;53.26;93538.63;2024975;71;20145;-72
2024/04/14 04:51:27;;;;;;;3.70;2.00;;;;;;;11.33;53.09;93538.09;2025122;71;20169;-69
2024/04/14 04:53:53;;;;;;;3.17;1.52;;;;;;;11.48;53.60;93533.44;2024388;71;20179;-69
2024/04/14 04:56:20;;;;;;;2.50;1.60;;;;;;;11.38;53.71;93537.03;2024952;70;20583;-70
2024/04/14 04:58:45;;;;;;;4.65;1.65;;;;;;;11.40;54.10;93522.31;2024599;70;20153;-69
2024/04/14 05:01:11;;;;;;;3.97;1.50;;;;;;;11.41;53.61;93523.81;2024986;70;20213;-69
2024/04/14 05:03:37;;;;;;;7.38;1.92;;;;;;;11.57;53.09;93524.22;2024905;70;20244;-69
2024/04/14 05:06:04;;;;;;;2.75;1.27;;;;;;;11.66;51.70;93523.44;2024887;70;20185;-68
2024/04/14 05:08:33;;;;;;;2.78;1.40;;;;;;;11.66;51.98;93529.09;2025051;70;20141;-71
2024/04/14 05:10:59;;;;;;;1.98;1.30;;;;;;;11.65;52.17;93521.97;2024906;70;20149;-71
2024/04/14 05:13:26;;;;;;;3.05;1.17;;;;;;;11.50;52.25;93531.53;2024787;70;20651;-70
2024/04/14 05:15:52;;;;;;;2.50;1.30;;;;;;;11.66;52.49;93532.66;2024440;70;20583;-70
2024/04/14 05:18:18;;;;;;;1.73;1.20;;;;;;;11.60;53.39;93514.56;2024241;71;20644;-70
2024/04/14 05:20:44;;;;;;;3.78;1.10;;;;;;;11.64;52.52;93523.31;2024956;70;20241;-74
2024/04/14 05:23:10;;;;;;;1.70;1.25;;;;;;;11.36;53.73;93527.69;2024439;71;20219;-73
2024/04/14 05:25:39;;;;;;;2.97;1.50;;;;;;;11.39;53.97;93527.22;2024944;70;20145;-70
2024/04/14 05:28:05;;;;;;;5.95;2.00;;;;;;;11.44;53.77;93536.72;2024951;70;20236;-70
2024/04/14 05:30:30;;;;;;;5.78;2.20;;;;;;;11.19;53.68;93518.06;2024682;71;20243;-69
2024/04/14 05:32:59;;;;;;;3.15;1.70;;;;;;;11.47;54.32;93531.97;2026317;70;20176;-68
2024/04/14 05:35:24;;;;;;;5.55;1.95;;;;;;;11.54;54.47;93531.03;2028654;70;20240;-69
2024/04/14 05:37:50;;;;;;;3.35;1.50;;;;;;;11.63;53.29;93521.81;2028513;70;20164;-69
2024/04/14 05:40:16;;;;;;;2.83;1.80;;;;;;;11.56;52.81;93519.94;2028528;70;20590;-68
2024/04/14 05:42:41;;;;;;;5.38;1.98;;;;;;;11.44;53.06;93520.53;2025129;70;20247;-69
2024/04/14 05:45:08;;;;;;;3.28;1.70;;;;;;;11.61;53.26;93524.50;2024965;70;20687;-70
2024/04/14 05:47:35;;;;;;;4.25;2.30;;;;;;;11.50;53.05;93503.31;2028395;70;20176;-72
2024/04/14 05:50:01;;;;;;;7.60;1.90;;;;;;;11.68;52.81;93515.88;2024810;70;20168;-73
2024/04/14 05:52:27;;;;;;;4.20;2.00;;;;;;;11.69;53.40;93505.34;2028471;70;20153;-72
2024/04/14 05:54:52;;;;;;;3.80;1.92;;;;;;;11.60;53.96;93520.22;2028447;70;20180;-73
2024/04/14 05:57:18;;;;;;;2.42;1.75;;;;;;;11.67;53.26;93520.03;2028500;70;20630;-76
2024/04/14 05:59:47;;;;;;;3.60;1.90;;;;;;;11.72;53.09;93518.22;2028440;70;20765;-69
2024/04/14 06:02:14;;;;;;;4.53;2.03;;;;;;;11.79;53.77;93516.56;2025077;70;20233;-71
2024/04/14 06:04:40;;;;;;;4.93;1.60;;;;;;;11.77;53.72;93522.81;2028393;70;20169;-69
2024/04/14 06:07:06;;;;;;;4.15;1.92;;;;;;;11.85;53.43;93525.47;2028704;70;20156;-69
2024/04/14 06:09:32;;;;;;;7.25;1.80;;;;;;;11.89;54.28;93525.75;2028557;70;20309;-70
2024/04/14 06:11:57;;;;;;;3.40;1.45;;;;;;;11.83;54.38;93514.81;2028706;70;20148;-68
2024/04/14 06:14:23;;;;;;;10.95;4.90;;;;;;;11.71;54.67;93516.75;2028498;70;20125;-70
2024/04/14 06:16:49;;;;;;;21.17;8.23;;;;;;;11.87;54.05;93525.63;2028453;70;20205;-74
2024/04/14 06:19:15;;;;;;;28.08;9.50;;;;;;;11.83;54.18;93516.88;2028094;70;20240;-72
2024/04/14 06:21:41;;;;;;;21.77;8.20;;;;;;;11.78;55.05;93510.19;2028408;70;20296;-76
2024/04/14 06:24:07;;;;;;;41.92;16.95;;;;;;;11.77;54.44;93516.41;2028536;70;20236;-75
2024/04/14 06:26:32;;;;;;;60.10;24.08;;;;;;;11.91;54.57;93509.72;2028122;70;20220;-74
2024/04/14 06:28:58;;;;;;;63.33;26.58;;;;;;;11.66;55.01;93503.72;2024745;70;20152;-72
2024/04/14 06:31:23;;;;;;;51.10;22.17;;;;;;;11.83;55.37;93509.16;2027503;70;20191;-75
2024/04/14 06:33:49;;;;;;;50.60;19.60;;;;;;;12.07;53.82;93500.88;2028093;70;20174;-72
2024/04/14 06:36:15;;;;;;;21.50;10.80;;;;;;;12.01;53.27;93497.66;2028240;70;20264;-76
2024/04/14 06:38:44;;;;;;;60.65;26.90;;;;;;;11.85;54.65;93494.44;2028449;70;20141;-71
2024/04/14 06:41:13;;;;;;;24.73;10.38;;;;;;;11.62;54.94;93490.06;2025060;70;20151;-70
2024/04/14 06:43:38;;;;;;;22.98;10.27;;;;;;;12.12;54.99;93492.06;2028357;70;20155;-68
2024/04/14 06:46:04;;;;;;;24.38;10.85;;;;;;;12.73;55.33;93487.63;2028216;70;20248;-71
2024/04/14 06:48:30;;;;;;;17.90;8.02;;;;;;;13.00;54.04;93480.88;2028267;70;20591;-70
2024/04/14 06:50:55;;;;;;;18.60;7.97;;;;;;;13.46;51.69;93483.13;2028188;70;20152;-74
2024/04/14 06:53:21;;;;;;;23.65;11.52;;;;;;;13.89;53.30;93480.09;2029500;70;20176;-77
2024/04/14 06:55:50;;;;;;;29.92;15.07;;;;;;;14.18;52.56;93487.47;2029501;70;20159;-75
2024/04/14 06:58:17;;;;;;;14.35;7.43;;;;;;;14.22;53.12;93479.22;2029620;70;20145;-77
2024/04/14 07:00:42;;;;;;;10.38;5.43;;;;;;;14.60;51.38;93477.22;2029287;70;20156;-78
2024/04/14 07:03:09;;;;;;;8.55;5.18;;;;;;;14.95;49.90;93472.16;2029381;70;20153;-78
2024/04/14 07:05:35;;;;;;;11.35;5.88;;;;;;;15.44;48.71;93469.22;2029411;70;20179;-71
2024/04/14 07:08:00;;;;;;;6.88;4.32;;;;;;;15.72;48.07;93463.66;2029087;70;20570;-72
2024/04/14 07:10:26;;;;;;;5.10;2.58;;;;;;;16.07;44.94;93459.78;2029536;70;20153;-72
2024/04/14 07:12:52;;;;;;;6.68;2.40;;;;;;;16.46;45.67;93449.06;2029447;70;20220;-70
2024/04/14 07:15:17;;;;;;;5.20;1.85;;;;;;;16.71;43.72;93450.28;2029261;70;20129;-66
2024/04/14 07:17:43;;;;;;;3.25;2.17;;;;;;;16.93;42.76;93457.09;2029297;70;20160;-72
2024/04/14 07:20:09;;;;;;;2.00;1.50;;;;;;;17.14;42.86;93455.25;2029325;70;20551;-72
2024/04/14 07:22:34;;;;;;;3.97;2.83;;;;;;;17.46;43.75;93447.53;2028998;70;20271;-69
2024/04/14 07:25:00;;;;;;;5.38;3.10;;;;;;;17.42;44.33;93445.25;2029231;70;20613;-70
2024/04/14 07:27:26;;;;;;;4.88;3.25;;;;;;;17.87;43.88;93455.88;2029132;70;20157;-71
2024/04/14 07:29:52;;;;;;;6.10;3.47;;;;;;;18.27;43.27;93436.28;2029027;70;20152;-68
2024/04/14 07:32:18;;;;;;;5.78;3.63;;;;;;;18.41;42.78;93436.88;2029371;70;20141;-69
2024/04/14 07:34:43;;;;;;;4.60;2.90;;;;;;;18.65;43.22;93430.78;2029196;70;20148;-69
2024/04/14 07:37:09;;;;;;;3.78;2.20;;;;;;;19.14;40.75;93438.53;2029375;70;20156;-72
2024/04/14 07:39:35;;;;;;;3.60;2.75;;;;;;;18.96;40.66;93442.09;2029408;70;20165;-75
2024/04/14 07:42:08;;;;;;;6.70;3.35;;;;;;;19.24;40.29;93441.78;2029281;70;20164;-69
2024/04/14 07:44:34;;;;;;;4.38;2.70;;;;;;;19.43;40.19;93429.00;2025881;70;20149;-69
2024/04/14 07:46:59;;;;;;;4.20;2.60;;;;;;;19.82;39.45;93436.22;2029343;70;20165;-68
2024/04/14 07:49:25;;;;;;;3.72;2.65;;;;;;;20.26;39.05;93429.31;2026164;70;20233;-76
2024/04/14 07:51:51;;;;;;;5.25;2.70;;;;;;;20.55;37.86;93428.22;2029663;70;20235;-78
2024/04/14 07:54:16;;;;;;;4.43;2.92;;;;;;;20.95;37.44;93424.56;2029576;70;20160;-71
2024/04/14 07:56:42;;;;;;;5.00;3.17;;;;;;;21.21;35.74;93422.59;2029340;70;20159;-76
2024/04/14 07:59:07;;;;;;;6.13;3.90;;;;;;;21.16;36.04;93420.97;2029641;70;20228;-75
2024/04/14 08:01:33;;;;;;;7.25;3.53;;;;;;;21.48;36.24;93421.31;2029609;70;20183;-77
2024/04/14 08:04:01;;;;;;;6.40;3.90;;;;;;;21.63;35.62;93416.78;2028939;70;20145;-74
2024/04/14 08:06:27;;;;;;;9.32;4.43;;;;;;;21.57;35.91;93410.84;2028825;70;20140;-74
2024/04/14 08:08:53;;;;;;;5.07;3.60;;;;;;;21.36;35.09;93414.50;2028793;70;20151;-77
2024/04/14 08:11:18;;;;;;;6.57;3.90;;;;;;;22.00;35.87;93407.16;2028761;70;20140;-76
2024/04/14 08:13:45;;;;;;;5.65;3.80;;;;;;;22.11;34.94;93410.31;2028844;70;20160;-73
2024/04/14 08:16:10;;;;;;;5.30;3.38;;;;;;;21.97;34.62;93405.63;2022529;70;20147;-70
2024/04/14 08:18:36;;;;;;;4.53;3.10;;;;;;;22.30;33.32;93400.84;2028913;70;20153;-72
2024/04/14 08:21:02;;;;;;;4.30;3.00;;;;;;;23.21;33.37;93398.97;2028884;70;20208;-74
2024/04/14 08:23:28;;;;;;;4.00;2.83;;;;;;;23.44;33.90;93395.22;2029271;70;20164;-78
2024/04/14 08:25:54;;;;;;;1.90;1.63;;;;;;;24.23;31.52;93398.41;2029139;70;20160;-74
2024/04/14 08:28:20;;;;;;;1.23;1.13;;;;;;;24.07;28.08;93390.19;2028702;70;20156;-76
2024/04/14 08:30:46;;;;;;;2.05;1.55;;;;;;;23.84;29.21;93380.34;2028859;70;20161;-77
2024/04/14 08:33:11;;;;;;;2.88;1.88;;;;;;;24.15;29.09;93384.63;2022633;70;20149;-79
2024/04/14 08:35:37;;;;;;;4.13;2.10;;;;;;;24.72;28.67;93385.75;2025661;70;20225;-78
2024/04/14 08:38:03;;;;;;;2.33;1.45;;;;;;;24.54;28.69;93380.38;2029036;70;20132;-77
2024/04/14 08:40:28;;;;;;;2.25;1.58;;;;;;;24.92;29.61;93381.78;2025362;70;20236;-76
2024/04/14 08:42:55;;;;;;;5.82;1.80;;;;;;;25.32;29.33;93379.63;2028383;70;20171;-77
2024/04/14 08:45:24;;;;;;;3.50;1.60;;;;;;;25.62;28.43;93375.06;2028403;70;20145;-72
2024/04/14 08:47:53;;;;;;;3.58;1.40;;;;;;;25.88;28.57;93377.63;2028446;70;20163;-71
2024/04/14 08:50:23;;;;;;;2.22;1.40;;;;;;;25.91;29.52;93368.31;2028560;70;20164;-71
2024/04/14 08:52:48;;;;;;;2.95;1.35;;;;;;;26.15;28.20;93364.28;2028491;70;20145;-72
2024/04/14 08:55:15;;;;;;;1.50;1.27;;;;;;;26.57;28.52;93361.22;2028614;70;20136;-75
2024/04/14 08:57:41;;;;;;;1.20;1.10;;;;;;;25.80;25.67;93369.59;2025071;70;20594;-75
2024/04/14 09:00:16;;;;;;;1.08;1.02;;;;;;;26.40;26.12;93368.22;2028215;70;20522;-72
2024/04/14 09:02:43;;;;;;;1.48;1.08;;;;;;;26.37;27.41;93364.56;2028300;70;20353;-73
2024/04/14 09:05:12;;;;;;;1.30;1.10;;;;;;;26.84;27.29;93360.06;2028887;70;20149;-72
2024/04/14 09:07:38;;;;;;;1.40;1.05;;;;;;;27.01;26.42;93355.19;2028521;70;20145;-72
2024/04/14 09:10:04;;;;;;;1.70;0.80;;;;;;;27.56;26.53;93355.69;2025165;70;20232;-71
2024/04/14 09:12:31;;;;;;;2.13;1.17;;;;;;;27.58;26.11;93349.91;2028695;70;20153;-72
2024/04/14 09:14:56;;;;;;;2.80;1.10;;;;;;;27.92;26.42;93348.72;2028274;70;20212;-72
2024/04/14 09:17:22;;;;;;;1.48;1.00;;;;;;;28.60;26.37;93341.09;2028521;70;20128;-72
2024/04/14 09:19:48;;;;;;;1.38;1.20;;;;;;;29.32;24.86;93342.69;2028248;70;20145;-73
2024/04/14 09:22:15;;;;;;;1.75;1.10;;;;;;;27.71;25.90;93339.13;2028586;70;20153;-74
2024/04/14 09:24:40;;;;;;;1.77;0.90;;;;;;;28.63;23.93;93339.63;2024963;70;20247;-72
2024/04/14 09:27:06;;;;;;;1.38;1.10;;;;;;;29.44;26.18;93338.34;2028415;70;20147;-71
2024/04/14 09:29:36;;;;;;;2.25;0.90;;;;;;;29.29;26.46;93328.94;2024804;70;20490;-71
2024/04/14 09:32:03;;;;;;;3.58;1.20;;;;;;;29.06;24.55;93331.81;2028463;70;20244;-72
2024/04/14 09:34:29;;;;;;;1.45;1.05;;;;;;;29.04;24.20;93328.88;2028596;70;20256;-72
2024/04/14 09:36:54;;;;;;;1.40;0.80;;;;;;;30.58;23.65;93333.06;2028202;70;20176;-74
2024/04/14 09:39:20;;;;;;;1.77;1.00;;;;;;;29.93;24.78;93327.44;2028397;70;20207;-72
2024/04/14 09:41:46;;;;;;;1.20;1.00;;;;;;;29.78;25.14;93315.16;2028364;70;20213;-72
2024/04/14 09:44:12;;;;;;;2.78;1.05;;;;;;;30.85;23.41;93319.13;2024700;70;20145;-74
2024/04/14 09:46:38;;;;;;;1.00;0.90;;;;;;;29.86;25.11;93311.50;2028604;70;20175;-71
2024/04/14 09:49:04;;;;;;;4.07;1.20;;;;;;;31.82;22.00;93301.69;2028508;70;20240;-72
2024/04/14 09:51:30;;;;;;;1.15;0.90;;;;;;;32.34;23.88;93299.69;2028258;70;20325;-73
2024/04/14 09:53:58;;;;;;;1.48;0.93;;;;;;;32.16;20.78;93309.34;2024931;70;20165;-75
2024/04/14 09:56:25;;;;;;;0.93;0.82;;;;;;;32.31;23.06;93298.28;2028349;70;20227;-71
2024/04/14 09:58:54;;;;;;;8.82;1.50;;;;;;;32.59;23.36;93297.22;2028277;70;20228;-72
2024/04/14 10:01:34;;;;;;;3.03;0.95;;;;;;;34.00;20.79;93295.13;2028352;70;20230;-73
2024/04/14 10:04:01;;;;;;;0.73;0.73;;;;;;;33.62;21.92;93286.22;2028346;70;20233;-74
2024/04/14 10:06:29;;;;;;;1.67;0.77;;;;;;;33.86;22.31;93287.28;2028395;70;20152;-75
2024/04/14 10:08:55;;;;;;;2.10;1.13;;;;;;;32.87;20.38;93282.25;2028399;70;20242;-74
2024/04/14 10:11:22;;;;;;;2.17;0.77;;;;;;;35.53;19.72;93286.06;2028249;70;20137;-76
2024/04/14 10:13:50;;;;;;;1.10;0.90;;;;;;;35.94;18.88;93276.94;2027980;70;20145;-73
2024/04/14 10:16:20;;;;;;;1.52;0.88;;;;;;;36.22;19.16;93274.78;2024795;70;20681;-74
2024/04/14 10:18:47;;;;;;;1.40;0.90;;;;;;;35.86;21.04;93265.44;2028464;70;20177;-74
2024/04/14 10:21:17;;;;;;;3.53;1.02;;;;;;;33.04;22.00;93268.19;2028265;70;20184;-71
2024/04/14 10:23:50;;;;;;;1.00;0.90;;;;;;;35.90;20.11;93259.47;2028303;70;20156;-72
2024/04/14 10:26:17;;;;;;;3.20;1.00;;;;;;;37.74;18.36;93257.00;2028031;70;20195;-71
2024/04/14 10:28:54;;;;;;;0.95;0.73;;;;;;;38.11;17.07;93251.31;2028286;70;20188;-71
2024/04/14 10:31:31;;;;;;;2.55;0.95;;;;;;;38.53;17.49;93232.94;2028526;70;20247;-71
2024/04/14 10:34:07;;;;;;;1.35;0.90;;;;;;;39.18;17.37;93248.13;2027969;70;20190;-72
2024/04/14 10:36:37;;;;;;;2.90;1.00;;;;;;;39.46;16.58;93242.66;2028328;70;20614;-71
2024/04/14 10:39:04;;;;;;;1.10;1.00;;;;;;;41.22;15.26;93241.59;2028115;70;20456;-71
2024/04/14 10:41:30;;;;;;;3.15;0.85;;;;;;;40.67;14.95;93232.34;2028028;70;20244;-71
2024/04/14 10:43:56;;;;;;;0.80;0.80;;;;;;;41.34;15.00;93232.16;2028262;70;20148;-72
2024/04/14 10:46:22;;;;;;;1.45;0.70;;;;;;;41.66;15.33;93223.25;2028368;70;20156;-75
2024/04/14 10:48:49;;;;;;;0.70;0.70;;;;;;;40.71;15.68;93218.09;2028355;70;20177;-75
2024/04/14 10:51:15;;;;;;;0.70;0.70;;;;;;;42.18;16.03;93213.94;2028430;70;20168;-73
2024/04/14 10:53:41;;;;;;;0.73;0.70;;;;;;;42.07;17.41;93210.81;2024847;70;20225;-72
2024/04/14 10:56:07;;;;;;;0.95;0.80;;;;;;;43.33;15.67;93203.31;2027907;70;20157;-71
2024/04/14 10:58:34;;;;;;;1.58;0.90;;;;;;;43.80;13.96;93196.94;2027400;70;20232;-71
2024/04/14 11:01:00;;;;;;;1.27;0.75;;;;;;;42.27;15.10;93182.44;2025718;70;20617;-73
2024/04/14 11:03:27;;;;;;;0.80;0.68;;;;;;;38.93;15.76;93179.97;2028031;70;20526;-74
2024/04/14 11:05:54;;;;;;;1.85;0.95;;;;;;;41.53;16.30;93179.53;2029295;70;20156;-74
2024/04/14 11:08:22;;;;;;;0.82;0.80;;;;;;;42.67;15.51;93169.28;2029104;70;20148;-73
2024/04/14 11:10:51;;;;;;;2.03;0.80;;;;;;;43.02;15.66;93165.78;2031747;70;20644;-76
2024/04/14 11:13:19;;;;;;;1.45;0.90;;;;;;;44.45;14.06;93166.41;2027998;70;20184;-72
2024/04/14 11:15:45;;;;;;;0.80;0.65;;;;;;;45.61;14.93;93173.88;2027657;70;20157;-74
2024/04/14 11:18:11;;;;;;;0.80;0.80;;;;;;;46.33;13.80;93172.06;2031687;70;20144;-73
2024/04/14 11:20:36;;;;;;;0.90;0.80;;;;;;;44.89;14.04;93159.19;2031494;70;20171;-81
2024/04/14 11:23:03;;;;;;;1.48;0.70;;;;;;;44.78;12.98;93156.19;2031699;70;20589;-79
2024/04/14 11:25:30;;;;;;;1.42;0.70;;;;;;;45.79;13.81;93150.44;2031406;70;20192;-74
2024/04/14 11:27:56;;;;;;;1.35;0.80;;;;;;;44.74;15.01;93150.50;2031452;70;20252;-74